sensor_id;sensor_type;location;lat;lon;timestamp;temperature;humidity
5176;DHT22;2607;50.934;6.934;2023-04-24T00:01:47;12.10;99.90
5176;DHT22;2607;50.934;6.934;2023-04-24T00:04:13;12.20;99.90
5176;DHT22;2607;50.934;6.934;2023-04-24T00:06:41;12.20;99.90
5176;DHT22;2607;50.934;6.934;2023-04-24T00:09:08;12.10;99.90
5176;DHT22;2607;50.934;6.934;2023-04-24T00:11:35;12.20;99.90
5176;DHT22;2607;50.934;6.934;2023-04-24T00:14:01;12.10;99.90
5176;DHT22;2607;50.934;6.934;2023-04-24T00:16:27;12.10;99.90
5176;DHT22;2607;50.934;6.934;2023-04-24T00:18:53;12.10;99.90
5176;DHT22;2607;50.934;6.934;2023-04-24T00:21:19;12.10;99.90
5176;DHT22;2607;50.934;6.934;2023-04-24T00:23:44;12.10;99.90
5176;DHT22;2607;50.934;6.934;2023-04-24T00:26:10;12.10;99.90
5176;DHT22;2607;50.934;6.934;2023-04-24T00:28:36;12.10;99.90
5176;DHT22;2607;50.934;6.934;2023-04-24T00:31:01;12.10;99.90
5176;DHT22;2607;50.934;6.934;2023-04-24T00:33:27;12.10;99.90
5176;DHT22;2607;50.934;6.934;2023-04-24T00:35:52;12.10;99.90
5176;DHT22;2607;50.934;6.934;2023-04-24T00:38:18;12.10;99.90
5176;DHT22;2607;50.934;6.934;2023-04-24T00:40:44;12.10;99.90
5176;DHT22;2607;50.934;6.934;2023-04-24T00:43:10;12.10;99.90
5176;DHT22;2607;50.934;6.934;2023-04-24T00:45:35;12.10;99.90
5176;DHT22;2607;50.934;6.934;2023-04-24T00:48:01;12.10;99.90
5176;DHT22;2607;50.934;6.934;2023-04-24T00:50:28;12.10;99.90
5176;DHT22;2607;50.934;6.934;2023-04-24T00:52:54;12.10;99.90
5176;DHT22;2607;50.934;6.934;2023-04-24T00:55:20;12.10;99.90
5176;DHT22;2607;50.934;6.934;2023-04-24T00:57:46;12.10;99.90
5176;DHT22;2607;50.934;6.934;2023-04-24T01:00:12;12.10;99.90
5176;DHT22;2607;50.934;6.934;2023-04-24T01:02:43;12.10;99.90
5176;DHT22;2607;50.934;6.934;2023-04-24T01:05:13;12.00;99.90
5176;DHT22;2607;50.934;6.934;2023-04-24T01:07:41;12.00;99.90
5176;DHT22;2607;50.934;6.934;2023-04-24T01:10:09;11.90;99.90
5176;DHT22;2607;50.934;6.934;2023-04-24T01:12:35;11.90;99.90
5176;DHT22;2607;50.934;6.934;2023-04-24T01:15:01;11.90;99.90
5176;DHT22;2607;50.934;6.934;2023-04-24T01:17:26;11.80;99.90
5176;DHT22;2607;50.934;6.934;2023-04-24T01:19:52;11.80;99.90
5176;DHT22;2607;50.934;6.934;2023-04-24T01:22:22;11.70;99.90
5176;DHT22;2607;50.934;6.934;2023-04-24T01:24:47;11.70;99.90
5176;DHT22;2607;50.934;6.934;2023-04-24T01:27:13;11.70;99.90
5176;DHT22;2607;50.934;6.934;2023-04-24T01:29:39;11.70;99.90
5176;DHT22;2607;50.934;6.934;2023-04-24T01:32:05;11.60;99.90
5176;DHT22;2607;50.934;6.934;2023-04-24T01:34:31;11.60;99.90
5176;DHT22;2607;50.934;6.934;2023-04-24T01:36:57;11.60;99.90
5176;DHT22;2607;50.934;6.934;2023-04-24T01:39:23;11.50;99.90
5176;DHT22;2607;50.934;6.934;2023-04-24T01:41:51;11.50;99.90
5176;DHT22;2607;50.934;6.934;2023-04-24T01:44:17;11.40;99.90
5176;DHT22;2607;50.934;6.934;2023-04-24T01:46:43;11.30;99.90
5176;DHT22;2607;50.934;6.934;2023-04-24T01:49:09;11.20;99.90
5176;DHT22;2607;50.934;6.934;2023-04-24T01:51:35;11.10;99.90
5176;DHT22;2607;50.934;6.934;2023-04-24T01:54:00;11.10;99.90
5176;DHT22;2607;50.934;6.934;2023-04-24T01:56:29;11.00;99.90
5176;DHT22;2607;50.934;6.934;2023-04-24T01:58:55;10.90;99.90
5176;DHT22;2607;50.934;6.934;2023-04-24T02:01:22;10.90;99.90
5176;DHT22;2607;50.934;6.934;2023-04-24T02:03:48;10.80;99.90
5176;DHT22;2607;50.934;6.934;2023-04-24T02:06:14;10.80;99.90
5176;DHT22;2607;50.934;6.934;2023-04-24T02:08:39;10.70;99.90
5176;DHT22;2607;50.934;6.934;2023-04-24T02:11:05;10.60;99.90
5176;DHT22;2607;50.934;6.934;2023-04-24T02:13:31;10.60;99.90
5176;DHT22;2607;50.934;6.934;2023-04-24T02:15:58;10.60;99.90
5176;DHT22;2607;50.934;6.934;2023-04-24T02:18:23;10.60;99.90
5176;DHT22;2607;50.934;6.934;2023-04-24T02:20:49;10.50;99.90
5176;DHT22;2607;50.934;6.934;2023-04-24T02:23:15;10.40;99.90
5176;DHT22;2607;50.934;6.934;2023-04-24T02:25:40;10.30;99.90
5176;DHT22;2607;50.934;6.934;2023-04-24T02:28:06;10.30;99.90
5176;DHT22;2607;50.934;6.934;2023-04-24T02:30:31;10.20;99.90
5176;DHT22;2607;50.934;6.934;2023-04-24T02:32:57;10.20;99.90
5176;DHT22;2607;50.934;6.934;2023-04-24T02:35:23;10.20;99.90
5176;DHT22;2607;50.934;6.934;2023-04-24T02:37:48;10.10;99.90
5176;DHT22;2607;50.934;6.934;2023-04-24T02:40:14;10.10;99.90
5176;DHT22;2607;50.934;6.934;2023-04-24T02:42:39;10.10;99.90
5176;DHT22;2607;50.934;6.934;2023-04-24T02:45:05;10.10;99.90
5176;DHT22;2607;50.934;6.934;2023-04-24T02:47:31;10.10;99.90
5176;DHT22;2607;50.934;6.934;2023-04-24T02:49:57;10.10;99.90
5176;DHT22;2607;50.934;6.934;2023-04-24T02:52:22;10.10;99.90
5176;DHT22;2607;50.934;6.934;2023-04-24T02:54:48;10.10;99.90
5176;DHT22;2607;50.934;6.934;2023-04-24T02:57:13;10.20;99.90
5176;DHT22;2607;50.934;6.934;2023-04-24T02:59:39;10.20;99.90
5176;DHT22;2607;50.934;6.934;2023-04-24T03:02:04;10.20;99.90
5176;DHT22;2607;50.934;6.934;2023-04-24T03:04:30;10.30;99.90
5176;DHT22;2607;50.934;6.934;2023-04-24T03:06:57;10.30;99.90
5176;DHT22;2607;50.934;6.934;2023-04-24T03:09:22;10.30;99.90
5176;DHT22;2607;50.934;6.934;2023-04-24T03:11:48;10.30;99.90
5176;DHT22;2607;50.934;6.934;2023-04-24T03:14:14;10.30;99.90
5176;DHT22;2607;50.934;6.934;2023-04-24T03:16:40;10.30;99.90
5176;DHT22;2607;50.934;6.934;2023-04-24T03:19:06;10.30;99.90
5176;DHT22;2607;50.934;6.934;2023-04-24T03:21:32;10.30;99.90
5176;DHT22;2607;50.934;6.934;2023-04-24T03:23:57;10.40;99.90
5176;DHT22;2607;50.934;6.934;2023-04-24T03:26:23;10.40;99.90
5176;DHT22;2607;50.934;6.934;2023-04-24T03:28:48;10.40;99.90
5176;DHT22;2607;50.934;6.934;2023-04-24T03:31:14;10.40;99.90
5176;DHT22;2607;50.934;6.934;2023-04-24T03:33:40;10.30;99.90
5176;DHT22;2607;50.934;6.934;2023-04-24T03:36:06;10.40;99.90
5176;DHT22;2607;50.934;6.934;2023-04-24T03:38:32;10.40;99.90
5176;DHT22;2607;50.934;6.934;2023-04-24T03:40:57;10.40;99.90
5176;DHT22;2607;50.934;6.934;2023-04-24T03:43:23;10.30;99.90
5176;DHT22;2607;50.934;6.934;2023-04-24T03:45:48;10.30;99.90
5176;DHT22;2607;50.934;6.934;2023-04-24T03:48:14;10.20;99.90
5176;DHT22;2607;50.934;6.934;2023-04-24T03:50:40;10.20;99.90
5176;DHT22;2607;50.934;6.934;2023-04-24T03:53:05;10.20;99.90
5176;DHT22;2607;50.934;6.934;2023-04-24T03:55:31;10.20;99.90
5176;DHT22;2607;50.934;6.934;2023-04-24T03:57:56;10.10;99.90
5176;DHT22;2607;50.934;6.934;2023-04-24T04:00:22;10.10;99.90
5176;DHT22;2607;50.934;6.934;2023-04-24T04:02:47;10.20;99.90
5176;DHT22;2607;50.934;6.934;2023-04-24T04:05:13;10.20;99.90
5176;DHT22;2607;50.934;6.934;2023-04-24T04:07:39;10.20;99.90
5176;DHT22;2607;50.934;6.934;2023-04-24T04:10:05;10.20;99.90
5176;DHT22;2607;50.934;6.934;2023-04-24T04:12:32;10.20;99.90
5176;DHT22;2607;50.934;6.934;2023-04-24T04:14:57;10.20;99.90
5176;DHT22;2607;50.934;6.934;2023-04-24T04:17:23;10.20;99.90
5176;DHT22;2607;50.934;6.934;2023-04-24T04:19:48;10.20;99.90
5176;DHT22;2607;50.934;6.934;2023-04-24T04:22:14;10.20;99.90
5176;DHT22;2607;50.934;6.934;2023-04-24T04:24:40;10.20;99.90
5176;DHT22;2607;50.934;6.934;2023-04-24T04:27:06;10.20;99.90
5176;DHT22;2607;50.934;6.934;2023-04-24T04:29:32;10.20;99.90
5176;DHT22;2607;50.934;6.934;2023-04-24T04:31:58;10.20;99.90
5176;DHT22;2607;50.934;6.934;2023-04-24T04:34:23;10.20;99.90
5176;DHT22;2607;50.934;6.934;2023-04-24T04:36:49;10.20;99.90
5176;DHT22;2607;50.934;6.934;2023-04-24T04:39:16;10.20;99.90
5176;DHT22;2607;50.934;6.934;2023-04-24T04:41:42;10.20;99.90
5176;DHT22;2607;50.934;6.934;2023-04-24T04:44:07;10.20;99.90
5176;DHT22;2607;50.934;6.934;2023-04-24T04:46:34;10.30;99.90
5176;DHT22;2607;50.934;6.934;2023-04-24T04:49:00;10.30;99.90
5176;DHT22;2607;50.934;6.934;2023-04-24T04:51:26;10.30;99.90
5176;DHT22;2607;50.934;6.934;2023-04-24T04:53:52;10.30;99.90
5176;DHT22;2607;50.934;6.934;2023-04-24T04:56:18;10.30;99.90
5176;DHT22;2607;50.934;6.934;2023-04-24T04:58:44;10.30;99.90
5176;DHT22;2607;50.934;6.934;2023-04-24T05:01:09;10.30;99.90
5176;DHT22;2607;50.934;6.934;2023-04-24T05:03:35;10.30;99.90
5176;DHT22;2607;50.934;6.934;2023-04-24T05:06:01;10.40;99.90
5176;DHT22;2607;50.934;6.934;2023-04-24T05:08:27;10.40;99.90
5176;DHT22;2607;50.934;6.934;2023-04-24T05:10:53;10.40;99.90
5176;DHT22;2607;50.934;6.934;2023-04-24T05:13:19;10.40;99.90
5176;DHT22;2607;50.934;6.934;2023-04-24T05:15:45;10.40;99.90
5176;DHT22;2607;50.934;6.934;2023-04-24T05:18:10;10.40;99.90
5176;DHT22;2607;50.934;6.934;2023-04-24T05:20:36;10.40;99.90
5176;DHT22;2607;50.934;6.934;2023-04-24T05:23:01;10.40;99.90
5176;DHT22;2607;50.934;6.934;2023-04-24T05:25:27;10.40;99.90
5176;DHT22;2607;50.934;6.934;2023-04-24T05:27:52;10.40;99.90
5176;DHT22;2607;50.934;6.934;2023-04-24T05:30:19;10.40;99.90
5176;DHT22;2607;50.934;6.934;2023-04-24T05:32:45;10.40;99.90
5176;DHT22;2607;50.934;6.934;2023-04-24T05:35:11;10.50;99.90
5176;DHT22;2607;50.934;6.934;2023-04-24T05:37:37;10.50;99.90
5176;DHT22;2607;50.934;6.934;2023-04-24T05:40:03;10.50;99.90
5176;DHT22;2607;50.934;6.934;2023-04-24T05:42:30;10.50;99.90
5176;DHT22;2607;50.934;6.934;2023-04-24T05:44:56;10.50;99.90
5176;DHT22;2607;50.934;6.934;2023-04-24T05:47:21;10.50;99.90
5176;DHT22;2607;50.934;6.934;2023-04-24T05:49:47;10.50;99.90
5176;DHT22;2607;50.934;6.934;2023-04-24T05:52:13;10.50;99.90
5176;DHT22;2607;50.934;6.934;2023-04-24T05:54:39;10.50;99.90
5176;DHT22;2607;50.934;6.934;2023-04-24T05:57:04;10.50;99.90
5176;DHT22;2607;50.934;6.934;2023-04-24T05:59:33;10.50;99.90
5176;DHT22;2607;50.934;6.934;2023-04-24T06:01:59;10.60;99.90
5176;DHT22;2607;50.934;6.934;2023-04-24T06:04:25;10.60;99.90
5176;DHT22;2607;50.934;6.934;2023-04-24T06:06:51;10.50;99.90
5176;DHT22;2607;50.934;6.934;2023-04-24T06:09:21;10.50;99.90
5176;DHT22;2607;50.934;6.934;2023-04-24T06:11:47;10.50;99.90
5176;DHT22;2607;50.934;6.934;2023-04-24T06:14:13;10.60;99.90
5176;DHT22;2607;50.934;6.934;2023-04-24T06:16:39;10.50;99.90
5176;DHT22;2607;50.934;6.934;2023-04-24T06:19:05;10.60;99.90
5176;DHT22;2607;50.934;6.934;2023-04-24T06:21:31;10.60;99.90
5176;DHT22;2607;50.934;6.934;2023-04-24T06:23:56;10.50;99.90
5176;DHT22;2607;50.934;6.934;2023-04-24T06:26:23;10.50;99.90
5176;DHT22;2607;50.934;6.934;2023-04-24T06:28:50;10.50;99.90
5176;DHT22;2607;50.934;6.934;2023-04-24T06:31:16;10.40;99.90
5176;DHT22;2607;50.934;6.934;2023-04-24T06:33:42;10.40;99.90
5176;DHT22;2607;50.934;6.934;2023-04-24T06:36:08;10.40;99.90
5176;DHT22;2607;50.934;6.934;2023-04-24T06:38:34;10.40;99.90
5176;DHT22;2607;50.934;6.934;2023-04-24T06:40:59;10.40;99.90
5176;DHT22;2607;50.934;6.934;2023-04-24T06:43:25;10.40;99.90
5176;DHT22;2607;50.934;6.934;2023-04-24T06:45:51;10.30;99.90
5176;DHT22;2607;50.934;6.934;2023-04-24T06:48:16;10.30;99.90
5176;DHT22;2607;50.934;6.934;2023-04-24T06:50:42;10.20;99.90
5176;DHT22;2607;50.934;6.934;2023-04-24T06:53:08;10.20;99.90
5176;DHT22;2607;50.934;6.934;2023-04-24T06:55:36;10.20;99.90
5176;DHT22;2607;50.934;6.934;2023-04-24T06:58:01;10.10;99.90
5176;DHT22;2607;50.934;6.934;2023-04-24T07:00:27;10.10;99.90
5176;DHT22;2607;50.934;6.934;2023-04-24T07:02:53;10.10;99.90
5176;DHT22;2607;50.934;6.934;2023-04-24T07:05:18;10.10;99.90
5176;DHT22;2607;50.934;6.934;2023-04-24T07:07:49;10.10;99.90
5176;DHT22;2607;50.934;6.934;2023-04-24T07:10:15;10.00;99.90
5176;DHT22;2607;50.934;6.934;2023-04-24T07:12:41;10.00;99.90
5176;DHT22;2607;50.934;6.934;2023-04-24T07:15:07;10.00;99.90
5176;DHT22;2607;50.934;6.934;2023-04-24T07:17:34;10.00;99.90
5176;DHT22;2607;50.934;6.934;2023-04-24T07:20:00;10.00;99.90
5176;DHT22;2607;50.934;6.934;2023-04-24T07:22:26;10.00;99.90
5176;DHT22;2607;50.934;6.934;2023-04-24T07:24:51;10.00;99.90
5176;DHT22;2607;50.934;6.934;2023-04-24T07:27:17;9.90;99.90
5176;DHT22;2607;50.934;6.934;2023-04-24T07:29:42;9.90;99.90
5176;DHT22;2607;50.934;6.934;2023-04-24T07:32:08;9.90;99.90
5176;DHT22;2607;50.934;6.934;2023-04-24T07:34:34;9.90;99.90
5176;DHT22;2607;50.934;6.934;2023-04-24T07:37:00;9.80;99.90
5176;DHT22;2607;50.934;6.934;2023-04-24T07:39:26;9.80;99.90
5176;DHT22;2607;50.934;6.934;2023-04-24T07:41:51;9.70;99.90
5176;DHT22;2607;50.934;6.934;2023-04-24T07:44:17;9.70;99.90
5176;DHT22;2607;50.934;6.934;2023-04-24T07:46:43;9.60;99.90
5176;DHT22;2607;50.934;6.934;2023-04-24T07:49:08;9.50;99.90
5176;DHT22;2607;50.934;6.934;2023-04-24T07:51:34;9.40;99.90
5176;DHT22;2607;50.934;6.934;2023-04-24T07:54:04;9.30;99.90
5176;DHT22;2607;50.934;6.934;2023-04-24T07:56:32;9.30;99.90
5176;DHT22;2607;50.934;6.934;2023-04-24T07:58:58;9.20;99.90
5176;DHT22;2607;50.934;6.934;2023-04-24T08:01:24;9.10;99.90
5176;DHT22;2607;50.934;6.934;2023-04-24T08:03:50;9.00;99.90
5176;DHT22;2607;50.934;6.934;2023-04-24T08:06:16;8.90;99.90
5176;DHT22;2607;50.934;6.934;2023-04-24T08:08:42;8.80;99.90
5176;DHT22;2607;50.934;6.934;2023-04-24T08:11:07;8.80;99.90
5176;DHT22;2607;50.934;6.934;2023-04-24T08:13:33;8.70;99.90
5176;DHT22;2607;50.934;6.934;2023-04-24T08:15:58;8.70;99.90
5176;DHT22;2607;50.934;6.934;2023-04-24T08:18:24;8.60;99.90
5176;DHT22;2607;50.934;6.934;2023-04-24T08:20:50;8.60;99.90
5176;DHT22;2607;50.934;6.934;2023-04-24T08:23:16;8.50;99.90
5176;DHT22;2607;50.934;6.934;2023-04-24T08:25:41;8.50;99.90
5176;DHT22;2607;50.934;6.934;2023-04-24T08:28:09;8.40;99.90
5176;DHT22;2607;50.934;6.934;2023-04-24T08:30:34;8.40;99.90
5176;DHT22;2607;50.934;6.934;2023-04-24T08:33:00;8.30;99.90
5176;DHT22;2607;50.934;6.934;2023-04-24T08:35:26;8.30;99.90
5176;DHT22;2607;50.934;6.934;2023-04-24T08:37:52;8.20;99.90
5176;DHT22;2607;50.934;6.934;2023-04-24T08:40:23;8.10;99.90
5176;DHT22;2607;50.934;6.934;2023-04-24T08:42:54;8.10;99.90
5176;DHT22;2607;50.934;6.934;2023-04-24T08:45:21;8.10;99.90
5176;DHT22;2607;50.934;6.934;2023-04-24T08:47:47;8.00;99.90
5176;DHT22;2607;50.934;6.934;2023-04-24T08:50:14;8.00;99.90
5176;DHT22;2607;50.934;6.934;2023-04-24T08:52:42;8.00;99.90
5176;DHT22;2607;50.934;6.934;2023-04-24T08:55:08;7.90;99.90
5176;DHT22;2607;50.934;6.934;2023-04-24T08:57:34;8.00;99.90
5176;DHT22;2607;50.934;6.934;2023-04-24T09:00:01;8.00;99.90
5176;DHT22;2607;50.934;6.934;2023-04-24T09:02:27;8.00;99.90
5176;DHT22;2607;50.934;6.934;2023-04-24T09:04:55;8.00;99.90
5176;DHT22;2607;50.934;6.934;2023-04-24T09:07:22;8.00;99.90
5176;DHT22;2607;50.934;6.934;2023-04-24T09:09:50;8.00;99.90
5176;DHT22;2607;50.934;6.934;2023-04-24T09:12:17;8.00;99.90
5176;DHT22;2607;50.934;6.934;2023-04-24T09:14:42;8.00;99.90
5176;DHT22;2607;50.934;6.934;2023-04-24T09:17:13;8.00;99.90
5176;DHT22;2607;50.934;6.934;2023-04-24T09:19:39;8.00;99.90
5176;DHT22;2607;50.934;6.934;2023-04-24T09:22:06;8.00;99.90
5176;DHT22;2607;50.934;6.934;2023-04-24T09:24:33;8.00;99.90
5176;DHT22;2607;50.934;6.934;2023-04-24T09:26:59;8.10;99.90
5176;DHT22;2607;50.934;6.934;2023-04-24T09:29:27;8.10;99.90
5176;DHT22;2607;50.934;6.934;2023-04-24T09:31:52;8.10;99.90
5176;DHT22;2607;50.934;6.934;2023-04-24T09:34:25;8.20;99.90
5176;DHT22;2607;50.934;6.934;2023-04-24T09:36:51;8.20;99.90
5176;DHT22;2607;50.934;6.934;2023-04-24T09:39:18;8.30;99.90
5176;DHT22;2607;50.934;6.934;2023-04-24T09:44:26;8.40;99.90
5176;DHT22;2607;50.934;6.934;2023-04-24T09:46:59;8.40;99.90
5176;DHT22;2607;50.934;6.934;2023-04-24T09:49:26;8.50;99.90
5176;DHT22;2607;50.934;6.934;2023-04-24T09:52:02;8.50;99.90
5176;DHT22;2607;50.934;6.934;2023-04-24T09:54:28;8.60;99.90
5176;DHT22;2607;50.934;6.934;2023-04-24T09:56:55;8.60;99.90
5176;DHT22;2607;50.934;6.934;2023-04-24T09:59:22;8.70;99.90
5176;DHT22;2607;50.934;6.934;2023-04-24T10:01:48;8.80;99.90
5176;DHT22;2607;50.934;6.934;2023-04-24T10:04:25;8.80;99.90
5176;DHT22;2607;50.934;6.934;2023-04-24T10:06:52;8.90;99.90
5176;DHT22;2607;50.934;6.934;2023-04-24T10:09:20;9.00;99.90
5176;DHT22;2607;50.934;6.934;2023-04-24T10:11:48;9.10;99.90
5176;DHT22;2607;50.934;6.934;2023-04-24T10:14:16;9.10;99.90
5176;DHT22;2607;50.934;6.934;2023-04-24T10:16:42;9.20;99.90
5176;DHT22;2607;50.934;6.934;2023-04-24T10:19:09;9.20;99.90
5176;DHT22;2607;50.934;6.934;2023-04-24T10:21:35;9.30;99.90
5176;DHT22;2607;50.934;6.934;2023-04-24T10:24:04;9.30;99.90
5176;DHT22;2607;50.934;6.934;2023-04-24T10:26:32;9.40;99.90
5176;DHT22;2607;50.934;6.934;2023-04-24T10:28:58;9.50;99.90
5176;DHT22;2607;50.934;6.934;2023-04-24T10:31:24;9.60;99.90
5176;DHT22;2607;50.934;6.934;2023-04-24T10:33:51;9.60;99.90
5176;DHT22;2607;50.934;6.934;2023-04-24T10:36:18;9.70;99.90
5176;DHT22;2607;50.934;6.934;2023-04-24T10:38:47;9.70;99.90
5176;DHT22;2607;50.934;6.934;2023-04-24T10:41:14;9.70;99.90
5176;DHT22;2607;50.934;6.934;2023-04-24T10:43:45;9.70;99.90
5176;DHT22;2607;50.934;6.934;2023-04-24T10:46:18;9.80;99.90
5176;DHT22;2607;50.934;6.934;2023-04-24T10:48:54;9.80;99.90
5176;DHT22;2607;50.934;6.934;2023-04-24T10:51:22;9.80;99.90
5176;DHT22;2607;50.934;6.934;2023-04-24T10:53:50;9.80;99.90
5176;DHT22;2607;50.934;6.934;2023-04-24T10:56:17;9.80;99.90
5176;DHT22;2607;50.934;6.934;2023-04-24T10:58:45;9.80;99.90
5176;DHT22;2607;50.934;6.934;2023-04-24T11:01:32;9.90;99.90
5176;DHT22;2607;50.934;6.934;2023-04-24T11:04:00;10.00;99.90
5176;DHT22;2607;50.934;6.934;2023-04-24T11:06:35;10.10;99.90
5176;DHT22;2607;50.934;6.934;2023-04-24T11:09:08;10.20;99.90
5176;DHT22;2607;50.934;6.934;2023-04-24T11:11:35;10.20;99.90
5176;DHT22;2607;50.934;6.934;2023-04-24T11:14:04;10.30;99.90
5176;DHT22;2607;50.934;6.934;2023-04-24T11:16:52;10.30;99.90
5176;DHT22;2607;50.934;6.934;2023-04-24T11:19:21;10.20;99.90
5176;DHT22;2607;50.934;6.934;2023-04-24T11:22:04;10.30;99.90
5176;DHT22;2607;50.934;6.934;2023-04-24T11:32:41;10.30;99.90
5176;DHT22;2607;50.934;6.934;2023-04-24T11:35:20;10.40;99.90
5176;DHT22;2607;50.934;6.934;2023-04-24T11:37:54;10.50;99.90
5176;DHT22;2607;50.934;6.934;2023-04-24T11:40:21;10.50;99.90
5176;DHT22;2607;50.934;6.934;2023-04-24T11:42:52;10.50;99.90
5176;DHT22;2607;50.934;6.934;2023-04-24T11:45:26;10.50;99.90
5176;DHT22;2607;50.934;6.934;2023-04-24T11:47:52;10.50;99.90
5176;DHT22;2607;50.934;6.934;2023-04-24T11:50:19;10.60;99.90
5176;DHT22;2607;50.934;6.934;2023-04-24T11:52:47;10.70;99.90
5176;DHT22;2607;50.934;6.934;2023-04-24T11:57:46;10.80;99.90
5176;DHT22;2607;50.934;6.934;2023-04-24T12:00:23;11.00;99.90
5176;DHT22;2607;50.934;6.934;2023-04-24T12:02:50;11.00;99.90
5176;DHT22;2607;50.934;6.934;2023-04-24T12:05:22;11.10;99.90
5176;DHT22;2607;50.934;6.934;2023-04-24T12:07:48;11.10;99.90
5176;DHT22;2607;50.934;6.934;2023-04-24T12:10:13;11.10;99.90
5176;DHT22;2607;50.934;6.934;2023-04-24T12:12:40;11.20;99.90
5176;DHT22;2607;50.934;6.934;2023-04-24T12:15:09;11.30;99.90
5176;DHT22;2607;50.934;6.934;2023-04-24T12:17:35;11.40;99.90
5176;DHT22;2607;50.934;6.934;2023-04-24T12:20:05;11.40;99.90
5176;DHT22;2607;50.934;6.934;2023-04-24T12:22:48;11.30;99.90
5176;DHT22;2607;50.934;6.934;2023-04-24T12:25:15;11.20;99.90
5176;DHT22;2607;50.934;6.934;2023-04-24T12:27:41;11.10;99.90
5176;DHT22;2607;50.934;6.934;2023-04-24T12:30:14;11.10;99.90
5176;DHT22;2607;50.934;6.934;2023-04-24T12:32:45;11.10;99.90
5176;DHT22;2607;50.934;6.934;2023-04-24T12:35:12;11.00;99.90
5176;DHT22;2607;50.934;6.934;2023-04-24T12:37:37;11.00;99.90
5176;DHT22;2607;50.934;6.934;2023-04-24T12:42:34;11.00;99.90
5176;DHT22;2607;50.934;6.934;2023-04-24T12:45:05;11.00;99.90
5176;DHT22;2607;50.934;6.934;2023-04-24T12:47:32;11.20;99.90
5176;DHT22;2607;50.934;6.934;2023-04-24T12:49:58;11.30;99.90
5176;DHT22;2607;50.934;6.934;2023-04-24T12:52:25;11.40;99.90
5176;DHT22;2607;50.934;6.934;2023-04-24T12:54:56;11.30;99.90
5176;DHT22;2607;50.934;6.934;2023-04-24T12:57:26;11.30;99.90
5176;DHT22;2607;50.934;6.934;2023-04-24T12:59:56;11.30;99.90
5176;DHT22;2607;50.934;6.934;2023-04-24T13:02:22;11.10;99.90
5176;DHT22;2607;50.934;6.934;2023-04-24T13:04:49;11.10;99.90
5176;DHT22;2607;50.934;6.934;2023-04-24T13:07:14;11.10;99.90
5176;DHT22;2607;50.934;6.934;2023-04-24T13:09:41;11.10;99.90
5176;DHT22;2607;50.934;6.934;2023-04-24T13:12:07;11.10;99.90
5176;DHT22;2607;50.934;6.934;2023-04-24T13:14:33;11.10;99.90
5176;DHT22;2607;50.934;6.934;2023-04-24T13:16:59;11.10;99.90
5176;DHT22;2607;50.934;6.934;2023-04-24T13:19:25;11.10;99.90
5176;DHT22;2607;50.934;6.934;2023-04-24T13:21:51;11.10;99.90
5176;DHT22;2607;50.934;6.934;2023-04-24T13:24:17;11.20;99.90
5176;DHT22;2607;50.934;6.934;2023-04-24T13:26:43;11.20;99.90
5176;DHT22;2607;50.934;6.934;2023-04-24T13:29:08;11.10;99.90
5176;DHT22;2607;50.934;6.934;2023-04-24T13:31:34;11.10;99.90
5176;DHT22;2607;50.934;6.934;2023-04-24T13:34:01;11.00;99.90
5176;DHT22;2607;50.934;6.934;2023-04-24T13:36:27;10.90;99.90
5176;DHT22;2607;50.934;6.934;2023-04-24T13:38:53;10.80;99.90
5176;DHT22;2607;50.934;6.934;2023-04-24T13:41:18;10.80;99.90
5176;DHT22;2607;50.934;6.934;2023-04-24T13:43:44;10.90;99.90
5176;DHT22;2607;50.934;6.934;2023-04-24T13:46:09;10.90;99.90
5176;DHT22;2607;50.934;6.934;2023-04-24T13:48:35;11.00;99.90
5176;DHT22;2607;50.934;6.934;2023-04-24T13:51:00;11.10;99.90
5176;DHT22;2607;50.934;6.934;2023-04-24T13:53:26;11.10;99.90
5176;DHT22;2607;50.934;6.934;2023-04-24T13:55:52;11.10;99.90
5176;DHT22;2607;50.934;6.934;2023-04-24T13:58:17;11.20;99.90
5176;DHT22;2607;50.934;6.934;2023-04-24T14:00:43;11.20;99.90
5176;DHT22;2607;50.934;6.934;2023-04-24T14:03:08;11.30;99.90
5176;DHT22;2607;50.934;6.934;2023-04-24T14:05:34;11.40;99.90
5176;DHT22;2607;50.934;6.934;2023-04-24T14:07:59;11.50;99.90
5176;DHT22;2607;50.934;6.934;2023-04-24T14:10:25;11.50;99.90
5176;DHT22;2607;50.934;6.934;2023-04-24T14:12:52;11.50;99.90
5176;DHT22;2607;50.934;6.934;2023-04-24T14:15:18;11.30;99.90
5176;DHT22;2607;50.934;6.934;2023-04-24T14:17:44;11.20;99.90
5176;DHT22;2607;50.934;6.934;2023-04-24T14:20:10;11.20;99.90
5176;DHT22;2607;50.934;6.934;2023-04-24T14:22:36;11.20;99.90
5176;DHT22;2607;50.934;6.934;2023-04-24T14:25:01;11.20;99.90
5176;DHT22;2607;50.934;6.934;2023-04-24T14:27:27;11.20;99.90
5176;DHT22;2607;50.934;6.934;2023-04-24T14:29:52;11.20;99.90
5176;DHT22;2607;50.934;6.934;2023-04-24T14:32:18;11.20;99.90
5176;DHT22;2607;50.934;6.934;2023-04-24T14:34:44;11.40;99.90
5176;DHT22;2607;50.934;6.934;2023-04-24T14:37:09;11.40;99.90
5176;DHT22;2607;50.934;6.934;2023-04-24T14:39:35;11.40;99.90
5176;DHT22;2607;50.934;6.934;2023-04-24T14:42:00;11.40;99.90
5176;DHT22;2607;50.934;6.934;2023-04-24T14:44:26;11.40;99.90
5176;DHT22;2607;50.934;6.934;2023-04-24T14:46:52;11.60;99.90
5176;DHT22;2607;50.934;6.934;2023-04-24T14:49:18;11.60;99.90
5176;DHT22;2607;50.934;6.934;2023-04-24T14:51:43;11.50;99.90
5176;DHT22;2607;50.934;6.934;2023-04-24T14:54:09;11.50;99.90
5176;DHT22;2607;50.934;6.934;2023-04-24T14:56:35;11.50;99.90
5176;DHT22;2607;50.934;6.934;2023-04-24T14:59:00;11.50;99.90
5176;DHT22;2607;50.934;6.934;2023-04-24T15:01:26;11.50;99.90
5176;DHT22;2607;50.934;6.934;2023-04-24T15:03:52;11.50;99.90
5176;DHT22;2607;50.934;6.934;2023-04-24T15:06:17;11.40;99.90
5176;DHT22;2607;50.934;6.934;2023-04-24T15:08:43;11.40;99.90
5176;DHT22;2607;50.934;6.934;2023-04-24T15:11:09;11.40;99.90
5176;DHT22;2607;50.934;6.934;2023-04-24T15:13:35;11.50;99.90
5176;DHT22;2607;50.934;6.934;2023-04-24T15:16:01;11.40;99.90
5176;DHT22;2607;50.934;6.934;2023-04-24T15:18:27;11.40;99.90
5176;DHT22;2607;50.934;6.934;2023-04-24T15:20:54;11.60;99.90
5176;DHT22;2607;50.934;6.934;2023-04-24T15:23:20;11.60;99.90
5176;DHT22;2607;50.934;6.934;2023-04-24T15:25:46;11.60;99.90
5176;DHT22;2607;50.934;6.934;2023-04-24T15:28:11;11.60;99.90
5176;DHT22;2607;50.934;6.934;2023-04-24T15:30:37;11.70;99.90
5176;DHT22;2607;50.934;6.934;2023-04-24T15:33:03;11.60;99.90
5176;DHT22;2607;50.934;6.934;2023-04-24T15:35:29;11.50;99.90
5176;DHT22;2607;50.934;6.934;2023-04-24T15:37:55;11.50;99.90
5176;DHT22;2607;50.934;6.934;2023-04-24T15:40:20;11.50;99.90
5176;DHT22;2607;50.934;6.934;2023-04-24T15:42:46;11.60;99.90
5176;DHT22;2607;50.934;6.934;2023-04-24T15:45:12;11.60;99.90
5176;DHT22;2607;50.934;6.934;2023-04-24T15:47:38;11.50;99.90
5176;DHT22;2607;50.934;6.934;2023-04-24T15:50:04;11.70;99.90
5176;DHT22;2607;50.934;6.934;2023-04-24T15:52:30;11.50;99.90
5176;DHT22;2607;50.934;6.934;2023-04-24T15:54:55;11.60;99.90
5176;DHT22;2607;50.934;6.934;2023-04-24T15:57:21;11.50;99.90
5176;DHT22;2607;50.934;6.934;2023-04-24T15:59:46;11.40;99.90
5176;DHT22;2607;50.934;6.934;2023-04-24T16:02:13;11.40;99.90
5176;DHT22;2607;50.934;6.934;2023-04-24T16:04:46;11.50;99.90
5176;DHT22;2607;50.934;6.934;2023-04-24T16:07:13;11.50;99.90
5176;DHT22;2607;50.934;6.934;2023-04-24T16:09:39;11.40;99.90
5176;DHT22;2607;50.934;6.934;2023-04-24T16:12:04;11.30;99.90
5176;DHT22;2607;50.934;6.934;2023-04-24T16:14:30;11.20;99.90
5176;DHT22;2607;50.934;6.934;2023-04-24T16:16:56;11.20;99.90